Archival Weather

King Khaled Intl

King Khaled Intl, Saudi Arabia (OERK)

Report from: Thursday, February 22, 2024 1:00 AM +03
Current time: Wednesday, April 24, 2024 10:13 PM +03

Current weather – Weather history – Daily summaries
Weather forecast

Temperature16.0°C (60.8°F)
Dew point0.0°C (32.0°F)
Winds 3 kts (1.5 m/s, 3.5 mph) East-Southeast (120°)
Clouds Sky clear
Altimeter30.15 in.Hg (1021 mB)
Relative humidity34 %
Density altitude-47 ft. (-14 m)
Remarks Ceiling and visibility OK
No significant changes expected in the next two hours
Flight conditions Visual Meteorological Conditions
Raw dataOERK 212200Z 12003KT CAVOK 16/00 Q1021 NOSIG
An error has occurred. This application may no longer respond until reloaded. Reload 🗙